sensor_id;sensor_type;location;lat;lon;timestamp;temperature;humidity
37956;DHT22;23776;51.592;7.180;2023-01-04T00:00:08;9.60;99.90
37956;DHT22;23776;51.592;7.180;2023-01-04T00:02:33;8.90;99.90
37956;DHT22;23776;51.592;7.180;2023-01-04T00:04:59;8.90;99.90
37956;DHT22;23776;51.592;7.180;2023-01-04T00:07:24;8.90;99.90
37956;DHT22;23776;51.592;7.180;2023-01-04T00:09:50;8.90;99.90
37956;DHT22;23776;51.592;7.180;2023-01-04T00:12:16;8.90;99.90
37956;DHT22;23776;51.592;7.180;2023-01-04T00:14:41;8.90;99.90
37956;DHT22;23776;51.592;7.180;2023-01-04T00:17:07;8.90;99.90
37956;DHT22;23776;51.592;7.180;2023-01-04T00:19:32;9.00;99.90
37956;DHT22;23776;51.592;7.180;2023-01-04T00:21:58;9.00;99.90
37956;DHT22;23776;51.592;7.180;2023-01-04T00:24:23;8.90;99.90
37956;DHT22;23776;51.592;7.180;2023-01-04T00:26:49;8.90;99.90
37956;DHT22;23776;51.592;7.180;2023-01-04T00:29:14;9.00;99.90
37956;DHT22;23776;51.592;7.180;2023-01-04T00:31:40;9.00;99.90
37956;DHT22;23776;51.592;7.180;2023-01-04T00:34:06;9.00;99.90
37956;DHT22;23776;51.592;7.180;2023-01-04T00:36:33;9.00;99.90
37956;DHT22;23776;51.592;7.180;2023-01-04T00:38:59;9.00;99.90
37956;DHT22;23776;51.592;7.180;2023-01-04T00:44:08;9.10;99.90
37956;DHT22;23776;51.592;7.180;2023-01-04T00:46:34;9.10;99.90
37956;DHT22;23776;51.592;7.180;2023-01-04T00:49:00;9.10;99.90
37956;DHT22;23776;51.592;7.180;2023-01-04T00:51:27;11.70;99.90
37956;DHT22;23776;51.592;7.180;2023-01-04T00:53:53;9.10;99.90
37956;DHT22;23776;51.592;7.180;2023-01-04T00:56:19;9.20;99.90
37956;DHT22;23776;51.592;7.180;2023-01-04T00:58:44;9.10;99.90
37956;DHT22;23776;51.592;7.180;2023-01-04T01:01:10;9.00;99.90
37956;DHT22;23776;51.592;7.180;2023-01-04T01:03:35;9.00;99.90
37956;DHT22;23776;51.592;7.180;2023-01-04T01:06:06;9.00;99.90
37956;DHT22;23776;51.592;7.180;2023-01-04T01:08:32;9.00;1.00
37956;DHT22;23776;51.592;7.180;2023-01-04T01:11:06;8.90;1.00
37956;DHT22;23776;51.592;7.180;2023-01-04T01:13:32;8.90;1.00
37956;DHT22;23776;51.592;7.180;2023-01-04T01:16:03;9.00;1.00
37956;DHT22;23776;51.592;7.180;2023-01-04T01:18:29;8.90;1.00
37956;DHT22;23776;51.592;7.180;2023-01-04T01:23:20;8.90;1.00
37956;DHT22;23776;51.592;7.180;2023-01-04T01:25:46;8.90;1.00
37956;DHT22;23776;51.592;7.180;2023-01-04T01:28:11;8.80;1.00
37956;DHT22;23776;51.592;7.180;2023-01-04T01:30:41;8.80;1.00
37956;DHT22;23776;51.592;7.180;2023-01-04T01:33:08;8.80;1.00
37956;DHT22;23776;51.592;7.180;2023-01-04T01:35:34;8.80;1.00
37956;DHT22;23776;51.592;7.180;2023-01-04T01:38:00;8.70;1.00
37956;DHT22;23776;51.592;7.180;2023-01-04T01:40:25;8.60;1.00
37956;DHT22;23776;51.592;7.180;2023-01-04T01:42:51;8.70;1.00
37956;DHT22;23776;51.592;7.180;2023-01-04T01:45:46;8.60;1.00
37956;DHT22;23776;51.592;7.180;2023-01-04T01:48:17;8.60;1.00
37956;DHT22;23776;51.592;7.180;2023-01-04T01:50:57;8.50;1.00
37956;DHT22;23776;51.592;7.180;2023-01-04T01:53:27;8.60;1.00
37956;DHT22;23776;51.592;7.180;2023-01-04T01:55:55;8.60;1.00
37956;DHT22;23776;51.592;7.180;2023-01-04T01:58:31;8.60;1.00
37956;DHT22;23776;51.592;7.180;2023-01-04T02:00:58;8.70;1.00
37956;DHT22;23776;51.592;7.180;2023-01-04T02:03:29;8.60;1.00
37956;DHT22;23776;51.592;7.180;2023-01-04T02:05:56;8.60;1.00
37956;DHT22;23776;51.592;7.180;2023-01-04T02:08:24;8.60;4.10
37956;DHT22;23776;51.592;7.180;2023-01-04T02:10:50;8.50;7.20
37956;DHT22;23776;51.592;7.180;2023-01-04T02:13:19;8.60;8.00
37956;DHT22;23776;51.592;7.180;2023-01-04T02:18:26;8.60;8.70
37956;DHT22;23776;51.592;7.180;2023-01-04T02:21:01;8.60;13.10
37956;DHT22;23776;51.592;7.180;2023-01-04T02:26:41;8.50;25.80
37956;DHT22;23776;51.592;7.180;2023-01-04T02:35:02;8.30;40.80
37956;DHT22;23776;51.592;7.180;2023-01-04T02:37:47;8.20;43.80
37956;DHT22;23776;51.592;7.180;2023-01-04T02:40:32;8.30;45.00
37956;DHT22;23776;51.592;7.180;2023-01-04T02:43:37;8.20;46.40
37956;DHT22;23776;51.592;7.180;2023-01-04T02:46:18;8.10;48.80
37956;DHT22;23776;51.592;7.180;2023-01-04T02:48:46;8.10;49.80
37956;DHT22;23776;51.592;7.180;2023-01-04T02:51:31;8.10;50.40
37956;DHT22;23776;51.592;7.180;2023-01-04T02:53:59;8.10;49.50
37956;DHT22;23776;51.592;7.180;2023-01-04T02:56:33;8.20;50.70
37956;DHT22;23776;51.592;7.180;2023-01-04T03:05:45;8.20;52.40
37956;DHT22;23776;51.592;7.180;2023-01-04T03:08:55;8.20;52.80
37956;DHT22;23776;51.592;7.180;2023-01-04T03:11:24;8.20;53.30
37956;DHT22;23776;51.592;7.180;2023-01-04T03:14:19;8.20;54.60
37956;DHT22;23776;51.592;7.180;2023-01-04T03:16:46;8.20;54.50
37956;DHT22;23776;51.592;7.180;2023-01-04T03:19:14;8.20;55.00
37956;DHT22;23776;51.592;7.180;2023-01-04T03:22:02;8.30;55.60
37956;DHT22;23776;51.592;7.180;2023-01-04T03:24:29;8.30;56.00
37956;DHT22;23776;51.592;7.180;2023-01-04T03:27:15;9.80;57.30
37956;DHT22;23776;51.592;7.180;2023-01-04T03:30:07;9.20;56.90
37956;DHT22;23776;51.592;7.180;2023-01-04T03:33:05;8.40;56.70
37956;DHT22;23776;51.592;7.180;2023-01-04T03:38:51;8.50;56.90
37956;DHT22;23776;51.592;7.180;2023-01-04T03:42:07;8.60;54.60
37956;DHT22;23776;51.592;7.180;2023-01-04T03:56:43;8.70;53.90
37956;DHT22;23776;51.592;7.180;2023-01-04T03:59:10;8.80;52.30
37956;DHT22;23776;51.592;7.180;2023-01-04T04:01:37;8.80;51.80
37956;DHT22;23776;51.592;7.180;2023-01-04T04:04:03;8.80;52.20
37956;DHT22;23776;51.592;7.180;2023-01-04T04:06:48;9.10;53.50
37956;DHT22;23776;51.592;7.180;2023-01-04T04:09:32;8.80;53.40
37956;DHT22;23776;51.592;7.180;2023-01-04T04:11:58;8.80;54.20
37956;DHT22;23776;51.592;7.180;2023-01-04T04:14:24;8.80;54.60
37956;DHT22;23776;51.592;7.180;2023-01-04T04:16:49;8.80;54.90
37956;DHT22;23776;51.592;7.180;2023-01-04T04:19:15;8.80;55.30
37956;DHT22;23776;51.592;7.180;2023-01-04T04:21:41;8.80;55.50
37956;DHT22;23776;51.592;7.180;2023-01-04T04:24:09;8.80;56.00
37956;DHT22;23776;51.592;7.180;2023-01-04T04:26:40;8.80;56.40
37956;DHT22;23776;51.592;7.180;2023-01-04T04:29:05;8.90;56.30
37956;DHT22;23776;51.592;7.180;2023-01-04T04:31:31;8.80;56.20
37956;DHT22;23776;51.592;7.180;2023-01-04T04:33:56;8.80;56.60
37956;DHT22;23776;51.592;7.180;2023-01-04T04:36:22;8.80;56.80
37956;DHT22;23776;51.592;7.180;2023-01-04T04:38:47;8.80;56.70
37956;DHT22;23776;51.592;7.180;2023-01-04T04:41:13;8.80;56.60
37956;DHT22;23776;51.592;7.180;2023-01-04T04:43:58;8.80;56.90
37956;DHT22;23776;51.592;7.180;2023-01-04T04:46:23;8.90;57.80
37956;DHT22;23776;51.592;7.180;2023-01-04T04:48:49;9.00;57.50
37956;DHT22;23776;51.592;7.180;2023-01-04T04:51:15;8.90;57.90
37956;DHT22;23776;51.592;7.180;2023-01-04T04:53:41;8.90;57.80
37956;DHT22;23776;51.592;7.180;2023-01-04T04:56:07;9.50;58.10
37956;DHT22;23776;51.592;7.180;2023-01-04T04:58:33;8.90;58.00
37956;DHT22;23776;51.592;7.180;2023-01-04T05:00:59;8.90;58.70
37956;DHT22;23776;51.592;7.180;2023-01-04T05:03:24;9.00;59.20
37956;DHT22;23776;51.592;7.180;2023-01-04T05:05:50;8.90;58.80
37956;DHT22;23776;51.592;7.180;2023-01-04T05:08:15;8.90;58.90
37956;DHT22;23776;51.592;7.180;2023-01-04T05:10:41;9.70;59.70
37956;DHT22;23776;51.592;7.180;2023-01-04T05:13:07;9.00;59.20
37956;DHT22;23776;51.592;7.180;2023-01-04T05:15:39;9.00;59.30
37956;DHT22;23776;51.592;7.180;2023-01-04T05:18:06;9.10;59.10
37956;DHT22;23776;51.592;7.180;2023-01-04T05:20:32;9.10;59.00
37956;DHT22;23776;51.592;7.180;2023-01-04T05:22:58;9.10;60.10
37956;DHT22;23776;51.592;7.180;2023-01-04T05:25:24;9.10;59.60
37956;DHT22;23776;51.592;7.180;2023-01-04T05:27:49;9.20;59.40
37956;DHT22;23776;51.592;7.180;2023-01-04T05:30:16;9.20;58.80
37956;DHT22;23776;51.592;7.180;2023-01-04T05:33:00;10.50;59.40
37956;DHT22;23776;51.592;7.180;2023-01-04T05:35:27;9.40;57.90
37956;DHT22;23776;51.592;7.180;2023-01-04T05:37:53;9.80;57.50
37956;DHT22;23776;51.592;7.180;2023-01-04T05:40:20;9.60;56.20
37956;DHT22;23776;51.592;7.180;2023-01-04T05:42:46;9.60;55.40
37956;DHT22;23776;51.592;7.180;2023-01-04T05:45:13;9.60;53.80
37956;DHT22;23776;51.592;7.180;2023-01-04T05:47:39;10.40;53.20
37956;DHT22;23776;51.592;7.180;2023-01-04T05:50:06;9.80;52.00
37956;DHT22;23776;51.592;7.180;2023-01-04T05:52:32;9.80;51.10
37956;DHT22;23776;51.592;7.180;2023-01-04T05:54:58;9.90;50.10
37956;DHT22;23776;51.592;7.180;2023-01-04T05:57:24;9.90;49.10
37956;DHT22;23776;51.592;7.180;2023-01-04T05:59:49;10.60;48.90
37956;DHT22;23776;51.592;7.180;2023-01-04T06:02:21;10.40;46.60
37956;DHT22;23776;51.592;7.180;2023-01-04T06:04:47;9.90;44.80
37956;DHT22;23776;51.592;7.180;2023-01-04T06:07:13;10.30;45.00
37956;DHT22;23776;51.592;7.180;2023-01-04T06:09:39;10.00;43.30
37956;DHT22;23776;51.592;7.180;2023-01-04T06:12:05;10.10;41.10
37956;DHT22;23776;51.592;7.180;2023-01-04T06:14:31;10.10;41.00
37956;DHT22;23776;51.592;7.180;2023-01-04T06:16:57;10.20;41.20
37956;DHT22;23776;51.592;7.180;2023-01-04T06:19:22;10.10;40.60
37956;DHT22;23776;51.592;7.180;2023-01-04T06:21:48;10.30;36.50
37956;DHT22;23776;51.592;7.180;2023-01-04T06:24:13;10.30;36.90
37956;DHT22;23776;51.592;7.180;2023-01-04T06:26:39;10.30;34.50
37956;DHT22;23776;51.592;7.180;2023-01-04T06:29:04;10.30;34.40
37956;DHT22;23776;51.592;7.180;2023-01-04T06:31:31;11.00;35.30
37956;DHT22;23776;51.592;7.180;2023-01-04T06:33:58;10.30;34.80
37956;DHT22;23776;51.592;7.180;2023-01-04T06:36:23;10.40;33.70
37956;DHT22;23776;51.592;7.180;2023-01-04T06:38:50;10.90;33.30
37956;DHT22;23776;51.592;7.180;2023-01-04T06:41:16;10.40;32.00
37956;DHT22;23776;51.592;7.180;2023-01-04T06:43:41;10.50;29.60
37956;DHT22;23776;51.592;7.180;2023-01-04T06:46:07;10.50;29.70
37956;DHT22;23776;51.592;7.180;2023-01-04T06:48:32;10.50;29.10
37956;DHT22;23776;51.592;7.180;2023-01-04T06:50:58;11.20;29.80
37956;DHT22;23776;51.592;7.180;2023-01-04T06:53:24;10.60;29.70
37956;DHT22;23776;51.592;7.180;2023-01-04T06:55:49;10.60;29.10
37956;DHT22;23776;51.592;7.180;2023-01-04T06:58:15;10.60;30.00
37956;DHT22;23776;51.592;7.180;2023-01-04T07:00:40;10.60;31.10
37956;DHT22;23776;51.592;7.180;2023-01-04T07:03:06;10.60;32.10
37956;DHT22;23776;51.592;7.180;2023-01-04T07:05:32;10.60;32.00
37956;DHT22;23776;51.592;7.180;2023-01-04T07:08:02;10.60;36.10
37956;DHT22;23776;51.592;7.180;2023-01-04T07:10:28;10.60;36.70
37956;DHT22;23776;51.592;7.180;2023-01-04T07:12:54;10.60;36.90
37956;DHT22;23776;51.592;7.180;2023-01-04T07:15:20;10.60;37.10
37956;DHT22;23776;51.592;7.180;2023-01-04T07:17:47;10.60;33.60
37956;DHT22;23776;51.592;7.180;2023-01-04T07:20:12;10.60;34.20
37956;DHT22;23776;51.592;7.180;2023-01-04T07:22:38;10.60;35.00
37956;DHT22;23776;51.592;7.180;2023-01-04T07:25:04;10.60;31.50
37956;DHT22;23776;51.592;7.180;2023-01-04T07:27:30;10.70;31.60
37956;DHT22;23776;51.592;7.180;2023-01-04T07:29:56;10.70;32.10
37956;DHT22;23776;51.592;7.180;2023-01-04T07:32:21;10.70;33.20
37956;DHT22;23776;51.592;7.180;2023-01-04T07:34:47;11.70;36.40
37956;DHT22;23776;51.592;7.180;2023-01-04T07:37:13;10.70;40.70
37956;DHT22;23776;51.592;7.180;2023-01-04T07:39:40;10.60;42.40
37956;DHT22;23776;51.592;7.180;2023-01-04T07:42:06;10.60;44.90
37956;DHT22;23776;51.592;7.180;2023-01-04T07:44:32;10.50;47.60
37956;DHT22;23776;51.592;7.180;2023-01-04T07:46:58;10.50;49.30
37956;DHT22;23776;51.592;7.180;2023-01-04T07:49:24;10.50;51.40
37956;DHT22;23776;51.592;7.180;2023-01-04T07:51:50;10.50;50.90
37956;DHT22;23776;51.592;7.180;2023-01-04T07:54:16;10.50;51.60
37956;DHT22;23776;51.592;7.180;2023-01-04T07:56:46;10.50;51.70
37956;DHT22;23776;51.592;7.180;2023-01-04T07:59:13;10.40;51.70
37956;DHT22;23776;51.592;7.180;2023-01-04T08:01:39;10.50;51.30
37956;DHT22;23776;51.592;7.180;2023-01-04T08:04:06;11.30;52.00
37956;DHT22;23776;51.592;7.180;2023-01-04T08:06:33;11.30;49.60
37956;DHT22;23776;51.592;7.180;2023-01-04T08:09:00;10.60;50.50
37956;DHT22;23776;51.592;7.180;2023-01-04T08:11:26;10.60;47.40
37956;DHT22;23776;51.592;7.180;2023-01-04T08:13:52;10.60;44.00
37956;DHT22;23776;51.592;7.180;2023-01-04T08:16:26;10.70;42.90
37956;DHT22;23776;51.592;7.180;2023-01-04T08:18:57;10.80;42.50
37956;DHT22;23776;51.592;7.180;2023-01-04T08:21:23;11.00;40.20
37956;DHT22;23776;51.592;7.180;2023-01-04T08:23:50;10.90;35.50
37956;DHT22;23776;51.592;7.180;2023-01-04T08:26:17;11.80;35.30
37956;DHT22;23776;51.592;7.180;2023-01-04T08:28:43;11.90;33.20
37956;DHT22;23776;51.592;7.180;2023-01-04T08:31:12;11.00;31.70
37956;DHT22;23776;51.592;7.180;2023-01-04T08:33:38;11.10;31.50
37956;DHT22;23776;51.592;7.180;2023-01-04T08:36:20;11.10;29.60
37956;DHT22;23776;51.592;7.180;2023-01-04T08:38:52;11.20;28.30
37956;DHT22;23776;51.592;7.180;2023-01-04T08:41:18;11.20;26.30
37956;DHT22;23776;51.592;7.180;2023-01-04T08:43:44;11.30;24.60
37956;DHT22;23776;51.592;7.180;2023-01-04T08:46:11;11.20;24.30
37956;DHT22;23776;51.592;7.180;2023-01-04T08:48:37;11.30;20.70
37956;DHT22;23776;51.592;7.180;2023-01-04T08:51:12;11.40;17.70
37956;DHT22;23776;51.592;7.180;2023-01-04T08:53:38;11.40;16.20
37956;DHT22;23776;51.592;7.180;2023-01-04T08:56:04;11.80;14.60
37956;DHT22;23776;51.592;7.180;2023-01-04T08:58:33;11.40;12.90
37956;DHT22;23776;51.592;7.180;2023-01-04T09:01:00;11.50;12.90
37956;DHT22;23776;51.592;7.180;2023-01-04T09:03:26;11.90;12.30
37956;DHT22;23776;51.592;7.180;2023-01-04T09:05:52;11.50;9.50
37956;DHT22;23776;51.592;7.180;2023-01-04T09:08:17;11.50;7.90
37956;DHT22;23776;51.592;7.180;2023-01-04T09:10:43;11.60;8.90
37956;DHT22;23776;51.592;7.180;2023-01-04T09:13:09;11.60;11.80
37956;DHT22;23776;51.592;7.180;2023-01-04T09:15:34;11.60;16.30
37956;DHT22;23776;51.592;7.180;2023-01-04T09:18:00;11.50;18.30
37956;DHT22;23776;51.592;7.180;2023-01-04T09:20:26;11.50;20.80
37956;DHT22;23776;51.592;7.180;2023-01-04T09:22:51;11.50;21.40
37956;DHT22;23776;51.592;7.180;2023-01-04T09:25:17;11.50;18.60
37956;DHT22;23776;51.592;7.180;2023-01-04T09:27:43;11.50;21.00
37956;DHT22;23776;51.592;7.180;2023-01-04T09:30:09;11.50;22.00
37956;DHT22;23776;51.592;7.180;2023-01-04T09:32:35;11.50;28.30
37956;DHT22;23776;51.592;7.180;2023-01-04T09:35:01;11.40;31.40
37956;DHT22;23776;51.592;7.180;2023-01-04T09:37:26;11.30;40.40
37956;DHT22;23776;51.592;7.180;2023-01-04T09:39:53;11.30;41.50
37956;DHT22;23776;51.592;7.180;2023-01-04T09:42:31;11.20;42.20
37956;DHT22;23776;51.592;7.180;2023-01-04T09:45:17;11.60;41.90
37956;DHT22;23776;51.592;7.180;2023-01-04T09:48:02;11.30;41.70
37956;DHT22;23776;51.592;7.180;2023-01-04T09:50:33;11.30;42.70
37956;DHT22;23776;51.592;7.180;2023-01-04T09:55:47;11.40;38.50
37956;DHT22;23776;51.592;7.180;2023-01-04T09:58:35;11.40;34.70
37956;DHT22;23776;51.592;7.180;2023-01-04T10:01:05;11.50;29.40
37956;DHT22;23776;51.592;7.180;2023-01-04T10:03:37;11.50;29.00
37956;DHT22;23776;51.592;7.180;2023-01-04T10:06:05;11.50;30.40
37956;DHT22;23776;51.592;7.180;2023-01-04T10:08:31;11.50;33.80
37956;DHT22;23776;51.592;7.180;2023-01-04T10:11:18;11.50;35.60
37956;DHT22;23776;51.592;7.180;2023-01-04T10:19:29;11.40;33.80
37956;DHT22;23776;51.592;7.180;2023-01-04T10:22:08;11.50;29.90
37956;DHT22;23776;51.592;7.180;2023-01-04T10:24:48;11.60;29.50
37956;DHT22;23776;51.592;7.180;2023-01-04T10:32:31;11.70;29.70
37956;DHT22;23776;51.592;7.180;2023-01-04T10:34:59;11.60;33.00
37956;DHT22;23776;51.592;7.180;2023-01-04T10:37:32;11.70;37.10
37956;DHT22;23776;51.592;7.180;2023-01-04T10:39:59;11.70;41.10
37956;DHT22;23776;51.592;7.180;2023-01-04T10:45:15;11.40;48.60
37956;DHT22;23776;51.592;7.180;2023-01-04T10:50:43;11.30;53.20
37956;DHT22;23776;51.592;7.180;2023-01-04T10:56:00;11.30;53.30
37956;DHT22;23776;51.592;7.180;2023-01-04T11:01:16;11.30;50.60
37956;DHT22;23776;51.592;7.180;2023-01-04T11:04:08;11.30;52.20
37956;DHT22;23776;51.592;7.180;2023-01-04T11:06:46;11.30;51.10
37956;DHT22;23776;51.592;7.180;2023-01-04T11:09:34;11.40;49.50
37956;DHT22;23776;51.592;7.180;2023-01-04T11:12:04;11.30;50.80
37956;DHT22;23776;51.592;7.180;2023-01-04T11:14:32;11.40;50.70
37956;DHT22;23776;51.592;7.180;2023-01-04T11:17:00;11.40;50.20
37956;DHT22;23776;51.592;7.180;2023-01-04T11:19:29;11.40;50.10
37956;DHT22;23776;51.592;7.180;2023-01-04T11:22:14;11.40;49.00
37956;DHT22;23776;51.592;7.180;2023-01-04T11:24:48;11.50;49.20
37956;DHT22;23776;51.592;7.180;2023-01-04T11:27:18;11.50;48.80
37956;DHT22;23776;51.592;7.180;2023-01-04T11:29:53;11.50;49.30
37956;DHT22;23776;51.592;7.180;2023-01-04T11:35:08;11.40;52.80
37956;DHT22;23776;51.592;7.180;2023-01-04T11:37:37;11.40;54.70
37956;DHT22;23776;51.592;7.180;2023-01-04T11:40:22;12.00;56.80
37956;DHT22;23776;51.592;7.180;2023-01-04T11:42:51;11.40;57.10
37956;DHT22;23776;51.592;7.180;2023-01-04T11:45:20;11.40;57.40
37956;DHT22;23776;51.592;7.180;2023-01-04T11:47:55;11.40;59.00
37956;DHT22;23776;51.592;7.180;2023-01-04T11:50:44;11.30;60.00
37956;DHT22;23776;51.592;7.180;2023-01-04T11:55:49;11.30;62.80
37956;DHT22;23776;51.592;7.180;2023-01-04T11:58:16;11.30;62.90
37956;DHT22;23776;51.592;7.180;2023-01-04T12:00:54;11.60;63.80
37956;DHT22;23776;51.592;7.180;2023-01-04T12:05:57;11.30;65.60
37956;DHT22;23776;51.592;7.180;2023-01-04T12:08:34;11.30;66.50
37956;DHT22;23776;51.592;7.180;2023-01-04T12:11:03;11.30;66.10
37956;DHT22;23776;51.592;7.180;2023-01-04T12:13:31;11.30;66.20
37956;DHT22;23776;51.592;7.180;2023-01-04T12:16:04;11.30;65.20
37956;DHT22;23776;51.592;7.180;2023-01-04T12:18:37;11.30;66.00
37956;DHT22;23776;51.592;7.180;2023-01-04T12:21:04;11.30;66.30
37956;DHT22;23776;51.592;7.180;2023-01-04T12:23:31;11.30;66.20
37956;DHT22;23776;51.592;7.180;2023-01-04T12:25:57;11.30;66.50
37956;DHT22;23776;51.592;7.180;2023-01-04T12:28:32;11.30;66.90
37956;DHT22;23776;51.592;7.180;2023-01-04T12:31:26;11.70;67.10
37956;DHT22;23776;51.592;7.180;2023-01-04T12:33:57;11.30;66.60
37956;DHT22;23776;51.592;7.180;2023-01-04T12:39:25;11.30;67.20
37956;DHT22;23776;51.592;7.180;2023-01-04T12:50:03;11.40;66.70
37956;DHT22;23776;51.592;7.180;2023-01-04T12:54:59;11.40;66.70
37956;DHT22;23776;51.592;7.180;2023-01-04T13:00:14;11.40;66.60
37956;DHT22;23776;51.592;7.180;2023-01-04T13:07:54;11.50;66.50
37956;DHT22;23776;51.592;7.180;2023-01-04T13:10:33;11.60;65.90
37956;DHT22;23776;51.592;7.180;2023-01-04T13:18:51;11.60;64.80
37956;DHT22;23776;51.592;7.180;2023-01-04T13:23:57;11.60;65.40
37956;DHT22;23776;51.592;7.180;2023-01-04T13:26:45;11.60;66.30
37956;DHT22;23776;51.592;7.180;2023-01-04T13:29:28;11.60;66.50
37956;DHT22;23776;51.592;7.180;2023-01-04T13:32:07;11.60;66.70
37956;DHT22;23776;51.592;7.180;2023-01-04T13:35:11;11.60;67.10
37956;DHT22;23776;51.592;7.180;2023-01-04T13:37:46;11.50;67.60
37956;DHT22;23776;51.592;7.180;2023-01-04T13:48:19;11.60;67.30
37956;DHT22;23776;51.592;7.180;2023-01-04T13:50:58;11.60;66.90
37956;DHT22;23776;51.592;7.180;2023-01-04T13:53:26;11.60;67.10
37956;DHT22;23776;51.592;7.180;2023-01-04T13:55:58;11.60;67.30
37956;DHT22;23776;51.592;7.180;2023-01-04T13:58:32;11.50;67.90
37956;DHT22;23776;51.592;7.180;2023-01-04T14:03:44;11.50;68.30
37956;DHT22;23776;51.592;7.180;2023-01-04T14:06:17;11.50;68.30
37956;DHT22;23776;51.592;7.180;2023-01-04T14:09:06;11.60;68.20
37956;DHT22;23776;51.592;7.180;2023-01-04T14:14:54;11.50;67.50
37956;DHT22;23776;51.592;7.180;2023-01-04T14:20:01;11.40;66.90
37956;DHT22;23776;51.592;7.180;2023-01-04T14:24:58;11.50;66.10
37956;DHT22;23776;51.592;7.180;2023-01-04T14:29:54;11.60;66.30
37956;DHT22;23776;51.592;7.180;2023-01-04T14:32:19;11.60;66.40
37956;DHT22;23776;51.592;7.180;2023-01-04T14:34:45;11.60;66.90
37956;DHT22;23776;51.592;7.180;2023-01-04T14:37:10;11.70;66.40
37956;DHT22;23776;51.592;7.180;2023-01-04T14:39:36;12.10;66.90
37956;DHT22;23776;51.592;7.180;2023-01-04T14:42:02;11.70;66.80
37956;DHT22;23776;51.592;7.180;2023-01-04T14:44:30;11.70;67.30
37956;DHT22;23776;51.592;7.180;2023-01-04T14:47:00;11.70;67.30
37956;DHT22;23776;51.592;7.180;2023-01-04T14:49:26;12.70;68.10
37956;DHT22;23776;51.592;7.180;2023-01-04T14:52:00;11.70;67.10
37956;DHT22;23776;51.592;7.180;2023-01-04T14:54:27;11.80;67.60
37956;DHT22;23776;51.592;7.180;2023-01-04T14:56:54;11.70;66.90
37956;DHT22;23776;51.592;7.180;2023-01-04T14:59:20;11.70;67.40
37956;DHT22;23776;51.592;7.180;2023-01-04T15:01:48;11.70;67.00
37956;DHT22;23776;51.592;7.180;2023-01-04T15:04:14;11.80;67.60
37956;DHT22;23776;51.592;7.180;2023-01-04T15:09:15;11.70;67.60
37956;DHT22;23776;51.592;7.180;2023-01-04T15:11:41;11.80;67.00
37956;DHT22;23776;51.592;7.180;2023-01-04T15:14:06;13.50;68.40
37956;DHT22;23776;51.592;7.180;2023-01-04T15:16:38;11.80;66.70
37956;DHT22;23776;51.592;7.180;2023-01-04T15:19:10;11.80;67.10
37956;DHT22;23776;51.592;7.180;2023-01-04T15:21:36;11.70;66.20
37956;DHT22;23776;51.592;7.180;2023-01-04T16:41:19;12.10;55.80
37956;DHT22;23776;51.592;7.180;2023-01-04T16:43:49;12.10;54.30
37956;DHT22;23776;51.592;7.180;2023-01-04T16:48:43;12.20;52.20
37956;DHT22;23776;51.592;7.180;2023-01-04T16:53:36;12.20;50.70
37956;DHT22;23776;51.592;7.180;2023-01-04T16:56:09;12.20;51.30
37956;DHT22;23776;51.592;7.180;2023-01-04T17:01:07;12.20;52.90
37956;DHT22;23776;51.592;7.180;2023-01-04T17:20:57;12.20;39.00
37956;DHT22;23776;51.592;7.180;2023-01-04T17:23:24;12.20;39.10
37956;DHT22;23776;51.592;7.180;2023-01-04T17:25:52;12.30;41.40
37956;DHT22;23776;51.592;7.180;2023-01-04T17:30:53;12.20;41.50
37956;DHT22;23776;51.592;7.180;2023-01-04T17:52:48;12.20;37.80
37956;DHT22;23776;51.592;7.180;2023-01-04T17:55:16;12.20;38.60
37956;DHT22;23776;51.592;7.180;2023-01-04T18:29:26;12.40;5.20
37956;DHT22;23776;51.592;7.180;2023-01-04T18:39:12;12.50;1.00
37956;DHT22;23776;51.592;7.180;2023-01-04T18:44:08;12.40;1.00
37956;DHT22;23776;51.592;7.180;2023-01-04T18:58:48;12.50;1.00
37956;DHT22;23776;51.592;7.180;2023-01-04T19:01:15;12.50;1.00
37956;DHT22;23776;51.592;7.180;2023-01-04T19:03:43;12.40;1.00
37956;DHT22;23776;51.592;7.180;2023-01-04T19:06:12;12.40;1.00
37956;DHT22;23776;51.592;7.180;2023-01-04T19:08:38;13.10;1.00
37956;DHT22;23776;51.592;7.180;2023-01-04T19:11:04;12.40;1.00
37956;DHT22;23776;51.592;7.180;2023-01-04T19:13:30;12.40;1.00
37956;DHT22;23776;51.592;7.180;2023-01-04T19:15:57;12.40;1.00
37956;DHT22;23776;51.592;7.180;2023-01-04T19:18:23;12.40;1.00
37956;DHT22;23776;51.592;7.180;2023-01-04T19:20:49;12.40;1.00
37956;DHT22;23776;51.592;7.180;2023-01-04T19:23:15;12.30;1.00
37956;DHT22;23776;51.592;7.180;2023-01-04T19:25:41;12.30;1.00
37956;DHT22;23776;51.592;7.180;2023-01-04T19:28:09;12.30;1.00
37956;DHT22;23776;51.592;7.180;2023-01-04T19:30:39;12.30;1.00
37956;DHT22;23776;51.592;7.180;2023-01-04T19:33:06;12.30;1.00
37956;DHT22;23776;51.592;7.180;2023-01-04T19:35:32;12.20;4.00
37956;DHT22;23776;51.592;7.180;2023-01-04T19:37:57;12.10;10.80
37956;DHT22;23776;51.592;7.180;2023-01-04T19:40:23;12.00;16.60
37956;DHT22;23776;51.592;7.180;2023-01-04T19:42:48;12.00;14.40
37956;DHT22;23776;51.592;7.180;2023-01-04T19:45:15;11.90;15.90
37956;DHT22;23776;51.592;7.180;2023-01-04T19:47:41;11.90;11.80
37956;DHT22;23776;51.592;7.180;2023-01-04T19:50:07;12.00;2.00
37956;DHT22;23776;51.592;7.180;2023-01-04T19:52:36;12.00;1.20
37956;DHT22;23776;51.592;7.180;2023-01-04T19:55:03;12.40;1.00
37956;DHT22;23776;51.592;7.180;2023-01-04T19:57:29;12.00;1.00
37956;DHT22;23776;51.592;7.180;2023-01-04T19:59:55;12.50;1.00
37956;DHT22;23776;51.592;7.180;2023-01-04T20:02:21;12.20;1.00
37956;DHT22;23776;51.592;7.180;2023-01-04T20:04:46;12.60;1.00
37956;DHT22;23776;51.592;7.180;2023-01-04T20:07:12;12.20;1.00
37956;DHT22;23776;51.592;7.180;2023-01-04T20:09:37;12.20;1.00
37956;DHT22;23776;51.592;7.180;2023-01-04T20:12:04;12.20;1.00
37956;DHT22;23776;51.592;7.180;2023-01-04T20:14:30;12.20;1.00
37956;DHT22;23776;51.592;7.180;2023-01-04T20:16:56;12.60;1.00
37956;DHT22;23776;51.592;7.180;2023-01-04T20:19:22;12.20;1.00
37956;DHT22;23776;51.592;7.180;2023-01-04T20:21:48;12.10;5.00
37956;DHT22;23776;51.592;7.180;2023-01-04T20:24:13;12.10;6.10
37956;DHT22;23776;51.592;7.180;2023-01-04T20:26:39;12.10;7.30
37956;DHT22;23776;51.592;7.180;2023-01-04T20:29:05;12.40;13.50
37956;DHT22;23776;51.592;7.180;2023-01-04T20:31:31;11.90;17.20
37956;DHT22;23776;51.592;7.180;2023-01-04T20:33:57;11.80;22.70
37956;DHT22;23776;51.592;7.180;2023-01-04T20:36:24;12.00;28.60
37956;DHT22;23776;51.592;7.180;2023-01-04T20:38:51;11.70;29.00
37956;DHT22;23776;51.592;7.180;2023-01-04T20:41:20;11.70;27.60
37956;DHT22;23776;51.592;7.180;2023-01-04T20:43:46;11.60;25.80
37956;DHT22;23776;51.592;7.180;2023-01-04T20:46:18;11.70;20.20
37956;DHT22;23776;51.592;7.180;2023-01-04T20:48:44;11.70;20.50
37956;DHT22;23776;51.592;7.180;2023-01-04T20:51:13;11.80;16.20
37956;DHT22;23776;51.592;7.180;2023-01-04T20:53:40;11.70;13.70